createdAt,value
2022-10-22T00:00:15.294Z,12.53
2022-10-22T00:02:45.127Z,13.83
2022-10-22T00:05:12.663Z,11.88
2022-10-22T00:07:40.758Z,16.30
2022-10-22T00:10:09.315Z,20.02
2022-10-22T00:12:38.388Z,23.27
2022-10-22T00:15:07.703Z,25.95
2022-10-22T00:17:35.728Z,27.45
2022-10-22T00:20:04.918Z,27.13
2022-10-22T00:22:33.471Z,26.07
2022-10-22T00:25:01.010Z,27.93
2022-10-22T00:27:28.727Z,32.40
2022-10-22T00:29:56.331Z,41.10
2022-10-22T00:32:23.839Z,52.50
2022-10-22T00:34:51.470Z,52.85
2022-10-22T00:37:19.140Z,50.35
2022-10-22T00:39:46.717Z,40.12
2022-10-22T00:42:23.774Z,38.78
2022-10-22T00:45:15.377Z,32.38
2022-10-22T00:47:54.328Z,28.27
2022-10-22T00:50:33.298Z,32.38
2022-10-22T00:53:02.908Z,40.20
2022-10-22T00:55:32.815Z,53.55
2022-10-22T00:58:02.130Z,50.83
2022-10-22T01:00:30.375Z,49.67
2022-10-22T01:02:59.266Z,41.15
2022-10-22T01:05:31.786Z,34.80
2022-10-22T01:08:02.946Z,35.60
2022-10-22T01:10:45.532Z,29.98
2022-10-22T01:13:30.732Z,37.05
2022-10-22T01:16:11.482Z,45.12
2022-10-22T01:19:13.368Z,97.37
2022-10-22T01:21:49.185Z,128.53
2022-10-22T01:24:42.090Z,90.00
2022-10-22T01:28:04.497Z,68.42
2022-10-22T01:30:40.095Z,33.13
2022-10-22T01:33:13.147Z,22.80
2022-10-22T01:35:45.952Z,19.63
2022-10-22T01:38:19.482Z,20.25
2022-10-22T01:40:51.565Z,17.60
2022-10-22T01:43:23.526Z,20.88
2022-10-22T01:46:02.391Z,57.78
2022-10-22T01:49:10.777Z,96.25
2022-10-22T01:51:56.010Z,86.97
2022-10-22T01:54:40.242Z,53.17
2022-10-22T01:57:31.463Z,28.12
2022-10-22T02:00:09.555Z,16.25
2022-10-22T02:02:51.453Z,10.90
2022-10-22T02:05:47.076Z,12.33
2022-10-22T02:08:24.568Z,14.63
2022-10-22T02:10:53.545Z,14.35
2022-10-22T02:13:43.077Z,15.63
2022-10-22T02:16:18.830Z,11.18
2022-10-22T02:18:50.041Z,11.63
2022-10-22T02:21:18.059Z,10.13
2022-10-22T02:23:46.351Z,9.95
2022-10-22T02:26:33.940Z,7.20
2022-10-22T02:29:15.504Z,8.53
2022-10-22T02:31:46.491Z,7.08
2022-10-22T02:34:19.535Z,7.22
2022-10-22T02:36:50.366Z,7.90
2022-10-22T02:39:20.690Z,6.70
2022-10-22T02:41:48.938Z,9.58
2022-10-22T02:44:20.488Z,10.05
2022-10-22T02:46:48.426Z,8.53
2022-10-22T02:49:16.355Z,5.40
2022-10-22T02:51:43.859Z,6.80
2022-10-22T02:54:11.286Z,7.87
2022-10-22T02:56:38.648Z,10.13
2022-10-22T02:59:06.286Z,7.62
2022-10-22T03:01:33.986Z,9.03
2022-10-22T03:04:01.528Z,6.62
2022-10-22T03:06:29.197Z,9.53
2022-10-22T03:08:56.765Z,6.08
2022-10-22T03:11:24.407Z,5.33
2022-10-22T03:13:51.963Z,6.58
2022-10-22T03:16:19.491Z,7.40
2022-10-22T03:18:47.215Z,7.62
2022-10-22T03:21:38.433Z,9.80
2022-10-22T03:24:11.337Z,6.03
2022-10-22T03:26:41.394Z,7.35
2022-10-22T03:29:11.414Z,9.65
2022-10-22T03:31:38.921Z,11.33
2022-10-22T03:34:06.349Z,9.10
2022-10-22T03:36:33.993Z,10.30
2022-10-22T03:39:03.982Z,6.95
2022-10-22T03:41:31.978Z,8.45
2022-10-22T03:44:02.031Z,6.03
2022-10-22T03:46:29.520Z,6.58
2022-10-22T03:48:57.114Z,6.90
2022-10-22T03:51:27.607Z,7.85
2022-10-22T03:53:55.501Z,7.65
2022-10-22T03:56:23.805Z,8.13
2022-10-22T03:58:51.395Z,7.53
2022-10-22T04:01:19.131Z,7.97
2022-10-22T04:03:46.984Z,10.25
2022-10-22T04:06:14.733Z,10.58
2022-10-22T04:08:44.208Z,7.28
2022-10-22T04:11:13.580Z,7.78
2022-10-22T04:13:42.131Z,11.55
2022-10-22T04:16:22.622Z,10.82
2022-10-22T04:18:51.411Z,12.18
2022-10-22T04:21:19.939Z,10.80
2022-10-22T04:23:50.584Z,7.58
2022-10-22T04:26:19.445Z,8.60
2022-10-22T04:28:48.996Z,8.98
2022-10-22T04:31:23.268Z,11.22
2022-10-22T04:33:56.355Z,8.65
2022-10-22T04:36:25.569Z,11.75
2022-10-22T04:38:57.659Z,9.25
2022-10-22T04:41:33.289Z,9.30
2022-10-22T04:44:01.237Z,8.68
2022-10-22T04:46:31.848Z,9.73
2022-10-22T04:49:00.192Z,13.22
2022-10-22T04:51:28.091Z,9.63
2022-10-22T04:53:55.752Z,16.37
2022-10-22T04:56:26.829Z,15.88
2022-10-22T04:58:58.594Z,15.53
2022-10-22T05:01:31.179Z,11.00
2022-10-22T05:04:01.625Z,14.90
2022-10-22T05:06:31.483Z,13.28
2022-10-22T05:09:03.940Z,10.75
2022-10-22T05:11:35.863Z,12.00
2022-10-22T05:14:07.187Z,11.85
2022-10-22T05:16:37.474Z,29.87
2022-10-22T05:19:06.520Z,19.90
2022-10-22T05:21:34.814Z,14.58
2022-10-22T05:24:03.436Z,11.63
2022-10-22T05:26:30.990Z,10.50
2022-10-22T05:28:58.501Z,14.40
2022-10-22T05:31:27.929Z,12.30
2022-10-22T05:33:55.740Z,11.10
2022-10-22T05:36:23.619Z,12.37
2022-10-22T05:38:51.604Z,19.65
2022-10-22T05:41:22.603Z,16.15
2022-10-22T05:43:51.396Z,17.32
2022-10-22T05:46:23.020Z,22.27
2022-10-22T05:48:53.423Z,21.12
2022-10-22T05:51:22.256Z,30.23
2022-10-22T05:53:55.996Z,27.48
2022-10-22T05:56:24.469Z,34.18
2022-10-22T05:58:52.399Z,42.33
2022-10-22T06:01:27.895Z,27.27
2022-10-22T06:03:59.108Z,22.45
2022-10-22T06:06:51.599Z,18.02
2022-10-22T06:09:29.304Z,13.58
2022-10-22T06:11:58.317Z,16.85
2022-10-22T06:14:27.523Z,13.22
2022-10-22T06:16:55.502Z,13.58
2022-10-22T06:19:25.526Z,12.98
2022-10-22T06:21:53.473Z,16.97
2022-10-22T06:24:21.159Z,16.73
2022-10-22T06:26:52.219Z,16.95
2022-10-22T06:29:19.782Z,15.32
2022-10-22T06:31:47.526Z,18.57
2022-10-22T06:34:17.927Z,20.65
2022-10-22T06:36:46.381Z,15.08
2022-10-22T06:39:16.416Z,16.55
2022-10-22T06:41:44.276Z,16.87
2022-10-22T06:44:15.426Z,11.90
2022-10-22T06:46:43.707Z,13.20
2022-10-22T06:49:16.662Z,12.37
2022-10-22T06:51:44.642Z,17.37
2022-10-22T06:54:12.506Z,14.43
2022-10-22T06:56:40.328Z,16.42
2022-10-22T06:59:08.075Z,14.40
2022-10-22T07:01:36.601Z,16.93
2022-10-22T07:04:05.946Z,17.50
2022-10-22T07:06:33.429Z,15.23
2022-10-22T07:09:01.461Z,10.38
2022-10-22T07:11:34.736Z,10.53
2022-10-22T07:14:02.281Z,15.10
2022-10-22T07:16:32.539Z,18.95
2022-10-22T07:19:02.103Z,22.10
2022-10-22T07:21:30.836Z,28.55
2022-10-22T07:23:59.319Z,17.12
2022-10-22T07:26:30.193Z,14.33
2022-10-22T07:28:58.840Z,27.60
2022-10-22T07:31:26.601Z,65.72
2022-10-22T07:33:54.253Z,51.75
2022-10-22T07:36:21.718Z,88.10
2022-10-22T07:38:54.064Z,28.75
2022-10-22T07:41:23.285Z,23.52
2022-10-22T07:43:51.343Z,31.57
2022-10-22T07:46:19.877Z,27.67
2022-10-22T07:48:47.464Z,20.85
2022-10-22T07:51:15.670Z,25.43
2022-10-22T07:53:43.279Z,16.17
2022-10-22T07:56:10.953Z,17.90
2022-10-22T07:58:38.037Z,14.70
2022-10-22T08:01:05.811Z,12.47
2022-10-22T08:03:34.139Z,16.12
2022-10-22T08:06:02.729Z,13.93
2022-10-22T08:08:30.947Z,12.28
2022-10-22T08:11:01.475Z,12.28
2022-10-22T08:13:30.264Z,17.17
2022-10-22T08:16:00.135Z,13.08
2022-10-22T08:18:28.492Z,13.08
2022-10-22T08:20:57.065Z,10.10
2022-10-22T08:23:27.577Z,8.73
2022-10-22T08:25:54.892Z,8.35
2022-10-22T08:28:22.961Z,8.93
2022-10-22T08:30:50.413Z,10.48
2022-10-22T08:33:20.028Z,7.97
2022-10-22T08:35:49.833Z,7.17
2022-10-22T08:38:18.487Z,7.33
2022-10-22T08:40:52.733Z,7.05
2022-10-22T08:44:02.331Z,8.68
2022-10-22T08:46:52.205Z,7.87
2022-10-22T08:49:27.883Z,11.20
2022-10-22T08:51:57.893Z,8.93
2022-10-22T08:54:39.652Z,8.75
2022-10-22T08:57:29.182Z,8.15
2022-10-22T09:00:08.406Z,7.33
2022-10-22T09:03:08.979Z,9.95
2022-10-22T09:05:46.505Z,9.10
2022-10-22T09:08:17.077Z,12.07
2022-10-22T09:10:49.253Z,13.53
2022-10-22T09:13:20.753Z,28.80
2022-10-22T09:15:56.458Z,30.97
2022-10-22T09:19:04.157Z,53.90
2022-10-22T09:21:43.181Z,29.55
2022-10-22T09:24:42.035Z,18.23
2022-10-22T09:27:16.591Z,33.55
2022-10-22T09:29:47.080Z,45.43
2022-10-22T09:32:16.920Z,11.05
2022-10-22T09:34:47.554Z,10.38
2022-10-22T09:37:19.374Z,7.60
2022-10-22T09:39:52.982Z,8.83
2022-10-22T09:42:21.531Z,17.95
2022-10-22T09:44:56.581Z,11.22
2022-10-22T09:50:42.755Z,10.10
2022-10-22T09:53:29.290Z,8.05
2022-10-22T09:56:00.905Z,25.35
2022-10-22T09:58:28.401Z,81.28
2022-10-22T10:01:01.168Z,28.35
2022-10-22T10:03:35.578Z,31.70
2022-10-22T10:06:06.020Z,37.65
2022-10-22T10:08:34.094Z,11.20
2022-10-22T10:11:07.189Z,11.15
2022-10-22T10:13:54.931Z,17.67
2022-10-22T10:16:51.270Z,6.85
2022-10-22T10:19:42.782Z,7.35
2022-10-22T10:22:42.372Z,6.08
2022-10-22T10:25:35.717Z,10.48
2022-10-22T10:28:30.143Z,6.23
2022-10-22T10:31:23.047Z,7.03
2022-10-22T10:34:11.219Z,8.88
2022-10-22T10:37:01.847Z,7.00
2022-10-22T10:40:03.315Z,7.42
2022-10-22T10:42:42.147Z,30.70
2022-10-22T10:45:30.034Z,15.32
2022-10-22T10:48:50.640Z,5.78
2022-10-22T10:51:38.773Z,9.68
2022-10-22T10:54:35.451Z,8.05
2022-10-22T10:57:10.967Z,9.68
2022-10-22T11:00:04.576Z,7.20
2022-10-22T11:03:10.923Z,5.72
2022-10-22T11:05:54.609Z,6.70
2022-10-22T11:08:32.899Z,17.92
2022-10-22T11:11:08.966Z,26.12
2022-10-22T11:13:53.199Z,11.83
2022-10-22T11:16:36.195Z,23.87
2022-10-22T11:19:46.070Z,8.30
2022-10-22T11:22:31.904Z,7.58
2022-10-22T11:25:17.128Z,5.78
2022-10-22T11:28:10.362Z,5.75
2022-10-22T11:30:37.992Z,14.13
2022-10-22T11:33:16.458Z,7.67
2022-10-22T11:35:46.201Z,8.65
2022-10-22T11:38:18.332Z,10.48
2022-10-22T11:41:00.276Z,7.85
2022-10-22T11:43:32.587Z,10.25
2022-10-22T11:46:17.343Z,6.17
2022-10-22T11:48:48.644Z,6.83
2022-10-22T11:51:37.145Z,6.17
2022-10-22T11:54:40.352Z,10.58
2022-10-22T11:57:21.452Z,6.53
2022-10-22T12:00:00.845Z,7.78
2022-10-22T12:02:42.466Z,6.80
2022-10-22T12:05:28.048Z,11.50
2022-10-22T12:08:11.163Z,7.85
2022-10-22T12:11:04.577Z,9.98
2022-10-22T12:13:54.026Z,18.65
2022-10-22T12:16:54.712Z,8.30
2022-10-22T12:19:15.269Z,8.67
2022-10-22T12:21:48.052Z,10.30
2022-10-22T12:24:19.980Z,17.57
2022-10-22T12:26:49.406Z,9.65
2022-10-22T12:29:17.125Z,11.53
2022-10-22T12:31:46.903Z,16.80
2022-10-22T12:34:18.402Z,13.43
2022-10-22T12:36:49.238Z,9.18
2022-10-22T12:39:21.331Z,10.60
2022-10-22T12:41:48.930Z,12.13
2022-10-22T12:44:18.067Z,9.68
2022-10-22T12:46:48.030Z,21.27
2022-10-22T12:49:20.273Z,10.23
2022-10-22T12:51:49.056Z,15.23
2022-10-22T12:54:30.953Z,39.60
2022-10-22T12:56:58.825Z,13.03
2022-10-22T12:59:34.498Z,19.35
2022-10-22T13:02:07.862Z,49.03
2022-10-22T13:04:36.824Z,20.62
2022-10-22T13:07:19.929Z,18.90
2022-10-22T13:10:01.134Z,14.38
2022-10-22T13:12:35.789Z,55.78
2022-10-22T13:15:29.656Z,42.75
2022-10-22T13:18:22.178Z,47.20
2022-10-22T13:21:02.665Z,74.17
2022-10-22T13:23:33.438Z,47.43
2022-10-22T13:26:14.366Z,100.00
2022-10-22T13:28:43.141Z,100.30
2022-10-22T13:31:20.854Z,49.30
2022-10-22T13:33:59.487Z,30.90
2022-10-22T13:36:28.119Z,14.78
2022-10-22T13:38:55.730Z,12.70
2022-10-22T13:41:27.394Z,47.53
2022-10-22T13:43:55.341Z,58.98
2022-10-22T13:46:25.940Z,68.07
2022-10-22T13:48:55.914Z,109.30
2022-10-22T13:51:31.411Z,150.93
2022-10-22T13:53:59.058Z,119.70
2022-10-22T13:56:26.594Z,91.72
2022-10-22T13:58:54.079Z,86.17
2022-10-22T14:01:28.337Z,42.27
2022-10-22T14:04:01.347Z,24.57
2022-10-22T14:06:32.058Z,17.07
2022-10-22T14:09:04.265Z,16.80
2022-10-22T14:11:32.244Z,13.22
2022-10-22T14:13:59.721Z,13.13
2022-10-22T14:16:31.846Z,12.03
2022-10-22T14:19:00.877Z,12.88
2022-10-22T14:21:35.337Z,16.02
2022-10-22T14:24:04.485Z,17.67
2022-10-22T14:26:34.459Z,117.82
2022-10-22T14:29:11.412Z,68.78
2022-10-22T14:31:32.567Z,36.23
2022-10-22T14:33:59.901Z,40.12
2022-10-22T14:36:27.743Z,70.37
2022-10-22T14:38:55.508Z,171.50
2022-10-22T14:41:25.778Z,83.52
2022-10-22T14:43:54.898Z,73.87
2022-10-22T14:46:22.806Z,134.47
2022-10-22T14:48:50.426Z,128.78
2022-10-22T14:51:20.788Z,149.90
2022-10-22T14:53:48.676Z,158.15
2022-10-22T14:56:20.904Z,137.85
2022-10-22T14:58:49.532Z,182.83
2022-10-22T15:01:17.451Z,110.35
2022-10-22T15:03:44.937Z,124.75
2022-10-22T15:06:12.479Z,139.10
2022-10-22T15:08:40.130Z,129.75
2022-10-22T15:11:11.766Z,120.47
2022-10-22T15:13:40.789Z,146.80
2022-10-22T15:16:11.236Z,216.73
2022-10-22T15:18:38.814Z,327.10
2022-10-22T15:21:19.840Z,392.62
2022-10-22T15:23:49.022Z,274.35
2022-10-22T15:26:17.328Z,231.95
2022-10-22T15:28:44.860Z,254.85
2022-10-22T15:31:14.313Z,295.80
2022-10-22T15:33:43.719Z,221.28
2022-10-22T15:36:14.985Z,110.50
2022-10-22T15:38:42.491Z,61.60
2022-10-22T15:41:12.980Z,32.48
2022-10-22T15:43:40.470Z,23.38
2022-10-22T15:46:18.092Z,22.93
2022-10-22T15:48:46.178Z,25.30
2022-10-22T15:51:17.475Z,34.10
2022-10-22T15:53:54.728Z,50.25
2022-10-22T15:56:24.154Z,44.73
2022-10-22T15:59:03.591Z,38.70
2022-10-22T16:01:33.972Z,32.60
2022-10-22T16:04:04.543Z,28.05
2022-10-22T16:06:39.844Z,28.75
2022-10-22T16:09:10.533Z,42.38
2022-10-22T16:11:39.521Z,42.23
2022-10-22T16:14:09.929Z,40.20
2022-10-22T16:16:42.118Z,39.50
2022-10-22T16:19:12.675Z,47.98
2022-10-22T16:21:40.168Z,49.85
2022-10-22T16:24:09.395Z,46.85
2022-10-22T16:26:37.014Z,42.85
2022-10-22T16:29:06.769Z,40.15
2022-10-22T16:31:34.402Z,37.20
2022-10-22T16:34:02.463Z,44.00
2022-10-22T16:36:30.061Z,81.25
2022-10-22T16:38:57.752Z,95.00
2022-10-22T16:41:28.062Z,124.42
2022-10-22T16:43:55.544Z,118.37
2022-10-22T16:46:23.458Z,106.52
2022-10-22T16:48:53.387Z,80.22
2022-10-22T16:51:24.971Z,87.45
2022-10-22T16:53:54.701Z,81.72
2022-10-22T16:56:23.017Z,78.52
2022-10-22T16:58:54.155Z,78.12
2022-10-22T17:01:28.711Z,69.12
2022-10-22T17:04:01.279Z,69.95
2022-10-22T17:06:29.349Z,66.27
2022-10-22T17:08:56.992Z,76.77
2022-10-22T17:11:25.238Z,93.00
2022-10-22T17:13:54.426Z,80.62
2022-10-22T17:16:24.367Z,66.53
2022-10-22T17:18:54.099Z,64.07
2022-10-22T17:21:22.803Z,58.75
2022-10-22T17:23:55.025Z,61.28
2022-10-22T17:26:23.616Z,65.70
2022-10-22T17:28:51.085Z,82.10
2022-10-22T17:31:25.720Z,85.42
2022-10-22T17:33:56.008Z,103.75
2022-10-22T17:36:25.481Z,81.25
2022-10-22T17:38:55.907Z,70.22
2022-10-22T17:41:27.606Z,69.97
2022-10-22T17:43:56.798Z,73.37
2022-10-22T17:46:27.829Z,62.27
2022-10-22T17:48:59.089Z,66.53
2022-10-22T17:51:28.910Z,61.75
2022-10-22T17:53:57.101Z,66.62
2022-10-22T17:56:27.948Z,61.80
2022-10-22T17:58:56.430Z,56.60
2022-10-22T18:01:30.702Z,50.05
2022-10-22T18:04:07.648Z,58.08
2022-10-22T18:06:35.602Z,63.50
2022-10-22T18:09:07.770Z,63.50
2022-10-22T18:11:37.597Z,73.22
2022-10-22T18:14:05.306Z,81.02
2022-10-22T18:16:32.968Z,70.90
2022-10-22T18:19:01.310Z,71.12
2022-10-22T18:21:30.072Z,69.92
2022-10-22T18:23:59.017Z,63.40
2022-10-22T18:26:27.226Z,69.95
2022-10-22T18:28:57.247Z,68.52
2022-10-22T18:31:27.267Z,76.62
2022-10-22T18:33:55.687Z,76.35
2022-10-22T18:36:26.820Z,69.58
2022-10-22T18:39:00.332Z,67.05
2022-10-22T18:41:30.250Z,67.27
2022-10-22T18:44:01.777Z,65.12
2022-10-22T18:46:31.380Z,71.33
2022-10-22T18:48:59.064Z,75.17
2022-10-22T18:51:32.216Z,67.97
2022-10-22T18:54:22.106Z,68.00
2022-10-22T18:56:30.115Z,74.53
2022-10-22T18:58:59.513Z,77.27
2022-10-22T19:01:29.051Z,76.10
2022-10-22T19:03:56.924Z,76.47
2022-10-22T19:06:34.419Z,88.05
2022-10-22T19:09:01.278Z,70.12
2022-10-22T19:11:28.890Z,61.53
2022-10-22T19:13:56.595Z,68.67
2022-10-22T19:16:24.157Z,61.30
2022-10-22T19:19:06.272Z,64.42
2022-10-22T19:21:33.935Z,64.42
2022-10-22T19:24:01.920Z,62.35
2022-10-22T19:26:30.485Z,54.83
2022-10-22T19:28:59.536Z,59.38
2022-10-22T19:31:29.377Z,71.92
2022-10-22T19:33:58.885Z,91.60
2022-10-22T19:36:28.442Z,71.97
2022-10-22T19:38:57.543Z,60.03
2022-10-22T19:41:27.964Z,60.90
2022-10-22T19:43:57.332Z,63.65
2022-10-22T19:46:27.209Z,58.90
2022-10-22T19:48:56.495Z,61.53
2022-10-22T19:51:29.368Z,56.08
2022-10-22T19:54:00.837Z,60.60
2022-10-22T19:56:28.969Z,60.88
2022-10-22T19:58:57.286Z,56.85
2022-10-22T20:01:25.296Z,60.52
2022-10-22T20:03:53.623Z,65.22
2022-10-22T20:06:21.566Z,69.90
2022-10-22T20:08:51.126Z,76.47
2022-10-22T20:11:25.988Z,77.80
2022-10-22T20:13:54.095Z,77.40
2022-10-22T20:16:24.624Z,83.47
2022-10-22T20:18:52.858Z,78.15
2022-10-22T20:21:21.522Z,80.55
2022-10-22T20:23:55.824Z,82.45
2022-10-22T20:26:25.280Z,73.90
2022-10-22T20:28:57.272Z,74.60
2022-10-22T20:31:27.947Z,72.40
2022-10-22T20:33:58.275Z,69.58
2022-10-22T20:36:28.334Z,72.78
2022-10-22T20:39:05.248Z,66.70
2022-10-22T20:41:34.818Z,67.85
2022-10-22T20:44:02.119Z,69.30
2022-10-22T20:46:32.971Z,70.05
2022-10-22T20:49:07.803Z,70.28
2022-10-22T20:51:37.612Z,64.77
2022-10-22T20:54:06.990Z,68.07
2022-10-22T20:56:40.055Z,78.78
2022-10-22T20:59:10.345Z,82.15
2022-10-22T21:01:51.268Z,73.40
2022-10-22T21:04:21.146Z,65.40
2022-10-22T21:06:49.843Z,51.45
2022-10-22T21:09:17.382Z,55.50
2022-10-22T21:11:45.529Z,51.18
2022-10-22T21:14:18.535Z,48.02
2022-10-22T21:16:49.451Z,50.67
2022-10-22T21:19:19.412Z,46.15
2022-10-22T21:21:47.131Z,49.00
2022-10-22T21:24:15.034Z,46.73
2022-10-22T21:26:43.386Z,47.88
2022-10-22T21:29:13.085Z,43.65
2022-10-22T21:31:40.694Z,36.03
2022-10-22T21:34:08.063Z,38.33
2022-10-22T21:36:35.433Z,41.90
2022-10-22T21:39:03.165Z,44.30
2022-10-22T21:41:30.795Z,54.20
2022-10-22T21:43:59.227Z,46.70
2022-10-22T21:46:28.198Z,41.55
2022-10-22T21:49:01.346Z,42.05
2022-10-22T21:51:32.416Z,39.58
2022-10-22T21:53:59.900Z,43.52
2022-10-22T21:56:32.207Z,44.05
2022-10-22T21:59:02.198Z,46.53
2022-10-22T22:01:30.138Z,47.33
2022-10-22T22:03:58.547Z,48.75
2022-10-22T22:06:30.866Z,50.98
2022-10-22T22:08:58.386Z,55.78
2022-10-22T22:11:28.068Z,45.10
2022-10-22T22:13:57.275Z,39.70
2022-10-22T22:16:29.637Z,36.58
2022-10-22T22:19:00.305Z,39.42
2022-10-22T22:21:29.272Z,72.67
2022-10-22T22:23:58.140Z,56.20
2022-10-22T22:26:29.867Z,51.80
2022-10-22T22:28:59.301Z,47.13
2022-10-22T22:31:33.494Z,48.40
2022-10-22T22:34:07.680Z,47.70
2022-10-22T22:36:41.622Z,50.05
2022-10-22T22:39:13.668Z,45.23
2022-10-22T22:41:42.397Z,44.80
2022-10-22T22:44:09.981Z,49.65
2022-10-22T22:46:37.556Z,50.85
2022-10-22T22:49:05.513Z,51.33
2022-10-22T22:51:33.604Z,79.35
2022-10-22T22:54:01.778Z,51.50
2022-10-22T22:56:31.713Z,67.42
2022-10-22T22:58:59.288Z,90.60
2022-10-22T23:01:37.080Z,71.75
2022-10-22T23:04:24.927Z,76.10
2022-10-22T23:06:52.482Z,106.72
2022-10-22T23:11:48.461Z,77.12
2022-10-22T23:14:18.317Z,74.80
2022-10-22T23:16:49.838Z,63.85
2022-10-22T23:19:21.014Z,60.38
2022-10-22T23:21:52.715Z,54.42
2022-10-22T23:24:24.629Z,46.48
2022-10-22T23:26:54.571Z,43.95
2022-10-22T23:29:29.541Z,37.45
2022-10-22T23:32:00.918Z,26.65
2022-10-22T23:34:30.536Z,28.77
2022-10-22T23:36:59.078Z,29.80
2022-10-22T23:39:28.749Z,29.07
2022-10-22T23:41:57.151Z,39.88
2022-10-22T23:44:25.616Z,36.58
2022-10-22T23:46:53.633Z,40.35
2022-10-22T23:49:21.231Z,45.20
2022-10-22T23:51:49.056Z,50.30
2022-10-22T23:54:19.477Z,49.48
2022-10-22T23:56:47.473Z,44.38
2022-10-22T23:59:15.806Z,48.25
